createdAt,value
2022-10-29T00:01:24.717Z,20.65
2022-10-29T00:03:51.416Z,17.30
2022-10-29T00:06:18.132Z,21.77
2022-10-29T00:08:44.874Z,20.30
2022-10-29T00:11:20.068Z,23.92
2022-10-29T00:13:48.515Z,22.70
2022-10-29T00:16:18.279Z,19.52
2022-10-29T00:18:45.364Z,25.65
2022-10-29T00:21:15.245Z,20.92
2022-10-29T00:23:42.042Z,22.13
2022-10-29T00:26:09.152Z,27.15
2022-10-29T00:28:35.985Z,20.88
2022-10-29T00:31:21.411Z,23.27
2022-10-29T00:33:48.081Z,26.90
2022-10-29T00:36:17.551Z,18.40
2022-10-29T00:38:44.889Z,23.00
2022-10-29T00:41:14.872Z,22.42
2022-10-29T00:43:46.789Z,23.95
2022-10-29T00:46:45.712Z,19.20
2022-10-29T00:49:12.772Z,27.77
2022-10-29T00:51:39.799Z,21.92
2022-10-29T00:54:11.764Z,20.25
2022-10-29T00:56:43.006Z,23.25
2022-10-29T00:59:10.363Z,23.90
2022-10-29T01:01:38.342Z,22.75
2022-10-29T01:04:06.010Z,24.65
2022-10-29T01:06:33.515Z,25.60
2022-10-29T01:09:00.226Z,19.83
2022-10-29T01:11:43.636Z,24.80
2022-10-29T01:14:23.121Z,25.88
2022-10-29T01:17:17.921Z,20.92
2022-10-29T01:20:04.458Z,28.30
2022-10-29T01:23:08.127Z,26.15
2022-10-29T01:25:56.217Z,26.23
2022-10-29T01:28:32.054Z,20.05
2022-10-29T01:31:20.462Z,22.25
2022-10-29T01:34:11.482Z,20.92
2022-10-29T01:37:00.585Z,29.60
2022-10-29T01:39:57.801Z,24.30
2022-10-29T01:42:35.814Z,22.67
2022-10-29T01:45:31.888Z,26.08
2022-10-29T01:48:12.301Z,21.40
2022-10-29T01:50:42.392Z,21.88
2022-10-29T01:53:09.958Z,18.85
2022-10-29T01:55:36.977Z,25.88
2022-10-29T01:58:05.186Z,29.48
2022-10-29T02:00:54.963Z,27.38
2022-10-29T02:03:52.902Z,24.33
2022-10-29T02:06:28.604Z,23.42
2022-10-29T02:11:38.805Z,26.83
2022-10-29T02:14:17.784Z,23.38
2022-10-29T02:16:45.685Z,21.15
2022-10-29T02:19:12.554Z,18.08
2022-10-29T02:21:39.200Z,24.65
2022-10-29T02:24:06.612Z,18.38
2022-10-29T02:26:33.244Z,26.90
2022-10-29T02:28:59.971Z,19.95
2022-10-29T02:31:26.587Z,22.33
2022-10-29T02:33:53.207Z,20.33
2022-10-29T02:36:20.137Z,22.13
2022-10-29T02:38:46.796Z,21.05
2022-10-29T02:41:13.435Z,25.25
2022-10-29T02:43:41.168Z,23.73
2022-10-29T02:46:15.069Z,23.38
2022-10-29T02:48:43.229Z,27.67
2022-10-29T02:51:10.539Z,24.08
2022-10-29T02:53:41.387Z,25.02
2022-10-29T02:56:12.907Z,24.58
2022-10-29T02:58:43.219Z,23.98
2022-10-29T03:01:11.295Z,23.40
2022-10-29T03:03:37.956Z,25.23
2022-10-29T03:06:04.786Z,25.75
2022-10-29T03:08:31.474Z,32.70
2022-10-29T03:10:58.108Z,33.97
2022-10-29T03:13:24.772Z,22.35
2022-10-29T03:15:51.427Z,31.15
2022-10-29T03:18:18.093Z,32.00
2022-10-29T03:20:44.920Z,27.90
2022-10-29T03:23:12.572Z,23.92
2022-10-29T03:25:39.748Z,23.52
2022-10-29T03:28:09.037Z,24.45
2022-10-29T03:30:36.896Z,19.13
2022-10-29T03:33:05.931Z,23.45
2022-10-29T03:35:32.583Z,29.42
2022-10-29T03:38:02.139Z,29.02
2022-10-29T03:40:28.888Z,19.98
2022-10-29T03:42:57.432Z,25.05
2022-10-29T03:45:26.028Z,30.83
2022-10-29T03:47:53.915Z,31.05
2022-10-29T03:50:23.029Z,24.63
2022-10-29T03:52:49.733Z,33.15
2022-10-29T03:55:16.560Z,30.65
2022-10-29T03:57:43.228Z,24.45
2022-10-29T04:00:10.468Z,25.90
2022-10-29T04:02:37.213Z,22.83
2022-10-29T04:05:04.087Z,28.50
2022-10-29T04:07:30.746Z,25.38
2022-10-29T04:09:57.407Z,24.73
2022-10-29T04:12:24.108Z,22.45
2022-10-29T04:17:18.306Z,26.08
2022-10-29T04:19:44.938Z,32.95
2022-10-29T04:28:41.428Z,26.85
2022-10-29T04:30:32.605Z,32.08
2022-10-29T04:33:00.400Z,26.10
2022-10-29T04:35:28.623Z,32.30
2022-10-29T04:37:55.560Z,26.10
2022-10-29T04:40:23.660Z,24.42
2022-10-29T04:42:50.910Z,26.63
2022-10-29T04:45:17.852Z,26.08
2022-10-29T04:47:44.837Z,28.08
2022-10-29T04:50:11.564Z,23.33
2022-10-29T04:52:38.182Z,32.05
2022-10-29T04:55:05.404Z,29.42
2022-10-29T04:57:32.195Z,26.40
2022-10-29T04:59:58.850Z,26.20
2022-10-29T05:02:25.858Z,27.10
2022-10-29T05:04:52.521Z,27.80
2022-10-29T05:07:19.169Z,34.72
2022-10-29T05:09:45.863Z,33.40
2022-10-29T05:12:12.533Z,31.98
2022-10-29T05:14:40.679Z,30.13
2022-10-29T05:17:25.662Z,26.42
2022-10-29T05:19:53.427Z,28.00
2022-10-29T05:25:06.382Z,27.85
2022-10-29T05:27:33.039Z,24.48
2022-10-29T05:30:02.925Z,32.63
2022-10-29T05:32:30.795Z,31.60
2022-10-29T05:34:58.766Z,27.42
2022-10-29T05:37:26.914Z,26.40
2022-10-29T05:39:54.557Z,31.10
2022-10-29T05:42:21.346Z,25.27
2022-10-29T05:44:48.079Z,28.10
2022-10-29T05:47:18.243Z,23.25
2022-10-29T05:49:54.747Z,29.88
2022-10-29T05:52:23.266Z,26.05
2022-10-29T05:54:52.016Z,26.83
2022-10-29T05:57:20.019Z,22.23
2022-10-29T05:59:48.063Z,31.58
2022-10-29T06:02:16.186Z,27.98
2022-10-29T06:04:44.704Z,26.55
2022-10-29T06:07:11.872Z,27.20
2022-10-29T06:09:39.894Z,32.78
2022-10-29T06:12:07.171Z,27.55
2022-10-29T06:14:38.906Z,31.73
2022-10-29T06:17:07.820Z,36.60
2022-10-29T06:19:34.917Z,30.33
2022-10-29T06:22:05.248Z,25.83
2022-10-29T06:24:33.794Z,30.88
2022-10-29T06:27:03.901Z,29.20
2022-10-29T06:29:31.767Z,28.67
2022-10-29T06:31:59.880Z,24.05
2022-10-29T06:34:30.651Z,23.92
2022-10-29T06:37:00.604Z,27.55
2022-10-29T06:39:27.319Z,27.98
2022-10-29T06:41:54.079Z,25.85
2022-10-29T06:44:20.789Z,30.25
2022-10-29T06:46:47.575Z,26.20
2022-10-29T06:49:18.375Z,32.53
2022-10-29T06:51:45.140Z,34.50
2022-10-29T06:54:11.917Z,27.65
2022-10-29T06:56:38.919Z,33.13
2022-10-29T06:59:05.721Z,27.55
2022-10-29T07:01:32.823Z,27.48
2022-10-29T07:04:00.458Z,27.63
2022-10-29T07:06:27.707Z,32.97
2022-10-29T07:08:54.468Z,31.02
2022-10-29T07:11:21.131Z,26.13
2022-10-29T07:13:47.838Z,28.73
2022-10-29T07:16:14.514Z,27.95
2022-10-29T07:18:41.304Z,29.63
2022-10-29T07:21:08.151Z,35.58
2022-10-29T07:23:35.154Z,30.00
2022-10-29T07:26:02.832Z,35.55
2022-10-29T07:28:29.785Z,28.80
2022-10-29T07:31:01.448Z,30.40
2022-10-29T07:33:29.815Z,27.63
2022-10-29T07:35:59.029Z,31.08
2022-10-29T07:38:26.907Z,27.25
2022-10-29T07:40:54.226Z,30.80
2022-10-29T07:43:22.691Z,31.13
2022-10-29T07:45:50.933Z,27.05
2022-10-29T07:48:19.494Z,28.65
2022-10-29T07:50:46.844Z,33.08
2022-10-29T07:53:15.429Z,29.52
2022-10-29T07:55:43.252Z,31.63
2022-10-29T07:58:12.467Z,29.90
2022-10-29T08:00:48.513Z,30.20
2022-10-29T08:03:17.274Z,29.77
2022-10-29T08:05:44.599Z,32.05
2022-10-29T08:08:11.806Z,28.23
2022-10-29T08:10:38.678Z,27.13
2022-10-29T08:13:06.780Z,29.55
2022-10-29T08:15:34.621Z,24.10
2022-10-29T08:18:01.941Z,28.08
2022-10-29T08:20:30.623Z,29.17
2022-10-29T08:23:00.061Z,33.20
2022-10-29T08:25:27.221Z,27.77
2022-10-29T08:28:02.283Z,28.88
2022-10-29T08:30:29.895Z,27.70
2022-10-29T08:32:56.935Z,30.25
2022-10-29T08:35:24.022Z,29.55
2022-10-29T08:37:50.766Z,32.58
2022-10-29T08:40:24.799Z,27.27
2022-10-29T08:43:01.310Z,28.88
2022-10-29T08:45:47.690Z,29.27
2022-10-29T08:48:30.942Z,30.42
2022-10-29T08:51:16.423Z,29.95
2022-10-29T08:54:03.997Z,36.65
2022-10-29T08:56:38.969Z,26.13
2022-10-29T08:59:17.355Z,26.58
2022-10-29T09:01:45.171Z,28.55
2022-10-29T09:04:36.035Z,32.08
2022-10-29T09:07:57.135Z,35.38
2022-10-29T09:10:36.658Z,31.92
2022-10-29T09:13:11.823Z,28.13
2022-10-29T09:16:02.622Z,35.17
2022-10-29T09:19:19.495Z,30.35
2022-10-29T09:22:21.303Z,29.00
2022-10-29T09:25:02.895Z,29.83
2022-10-29T09:27:56.066Z,28.00
2022-10-29T09:30:23.170Z,29.13
2022-10-29T09:33:08.733Z,29.75
2022-10-29T09:35:39.942Z,35.25
2022-10-29T09:38:18.490Z,32.13
2022-10-29T09:40:45.369Z,28.95
2022-10-29T09:43:45.922Z,23.63
2022-10-29T09:46:21.479Z,33.03
2022-10-29T09:49:11.513Z,26.35
2022-10-29T09:52:08.871Z,32.85
2022-10-29T09:54:37.161Z,32.83
2022-10-29T09:57:05.625Z,26.58
2022-10-29T10:02:50.376Z,25.05
2022-10-29T10:05:31.336Z,28.67
2022-10-29T10:08:12.873Z,26.35
2022-10-29T10:10:51.391Z,27.48
2022-10-29T10:13:20.672Z,28.50
2022-10-29T10:15:58.784Z,24.65
2022-10-29T10:18:33.295Z,30.90
2022-10-29T10:21:13.841Z,26.25
2022-10-29T10:23:43.525Z,28.45
2022-10-29T10:26:42.896Z,28.45
2022-10-29T10:29:29.474Z,27.13
2022-10-29T10:31:56.242Z,25.08
2022-10-29T10:34:24.447Z,26.70
2022-10-29T10:36:57.631Z,26.98
2022-10-29T10:39:37.786Z,31.98
2022-10-29T10:42:16.895Z,28.63
2022-10-29T10:44:52.837Z,26.10
2022-10-29T10:47:22.145Z,27.25
2022-10-29T10:49:50.021Z,26.95
2022-10-29T10:52:31.510Z,25.98
2022-10-29T10:55:07.058Z,25.73
2022-10-29T10:57:40.628Z,29.20
2022-10-29T11:00:20.340Z,26.15
2022-10-29T11:03:17.694Z,30.58
2022-10-29T11:06:06.699Z,31.75
2022-10-29T11:08:38.250Z,27.00
2022-10-29T11:11:13.320Z,30.17
2022-10-29T11:13:41.348Z,24.83
2022-10-29T11:16:22.515Z,27.83
2022-10-29T11:19:00.957Z,27.85
2022-10-29T11:21:46.237Z,25.30
2022-10-29T11:24:18.487Z,23.63
2022-10-29T11:26:55.072Z,22.88
2022-10-29T11:29:48.971Z,25.75
2022-10-29T11:32:38.753Z,32.38
2022-10-29T11:35:13.327Z,29.52
2022-10-29T11:37:58.938Z,30.20
2022-10-29T11:41:00.701Z,24.00
2022-10-29T11:43:27.453Z,22.63
2022-10-29T11:46:09.533Z,26.40
2022-10-29T11:49:01.134Z,24.55
2022-10-29T11:51:30.692Z,24.85
2022-10-29T11:54:15.535Z,24.55
2022-10-29T11:56:53.210Z,26.15
2022-10-29T11:59:51.893Z,29.95
2022-10-29T12:02:30.822Z,25.80
2022-10-29T12:05:22.051Z,27.80
2022-10-29T12:08:09.482Z,26.90
2022-10-29T12:10:45.221Z,21.35
2022-10-29T12:13:25.075Z,23.45
2022-10-29T12:16:11.391Z,27.35
2022-10-29T12:18:45.429Z,25.08
2022-10-29T12:21:19.798Z,21.73
2022-10-29T12:24:05.311Z,21.73
2022-10-29T12:26:43.791Z,24.33
2022-10-29T12:29:22.825Z,25.00
2022-10-29T12:32:08.975Z,24.10
2022-10-29T12:34:45.148Z,24.85
2022-10-29T12:37:40.759Z,20.60
2022-10-29T12:40:38.427Z,25.43
2022-10-29T12:43:11.794Z,22.65
2022-10-29T12:46:14.792Z,25.38
2022-10-29T12:48:59.141Z,21.63
2022-10-29T12:51:45.721Z,25.50
2022-10-29T12:54:26.913Z,21.35
2022-10-29T12:56:53.865Z,24.70
2022-10-29T12:59:23.562Z,27.67
2022-10-29T13:02:11.694Z,22.13
2022-10-29T13:04:38.535Z,26.02
2022-10-29T13:09:48.694Z,21.70
2022-10-29T13:12:55.508Z,22.15
2022-10-29T13:17:53.922Z,24.38
2022-10-29T13:20:56.979Z,21.23
2022-10-29T13:23:23.641Z,27.45
2022-10-29T13:25:57.433Z,20.65
2022-10-29T13:28:24.015Z,23.42
2022-10-29T13:30:53.192Z,26.00
2022-10-29T13:33:29.174Z,29.35
2022-10-29T13:36:17.131Z,25.58
2022-10-29T13:39:04.361Z,18.30
2022-10-29T13:41:41.654Z,22.58
2022-10-29T13:44:21.557Z,23.20
2022-10-29T13:47:01.258Z,21.02
2022-10-29T13:49:27.986Z,26.08
2022-10-29T13:52:06.526Z,22.17
2022-10-29T13:54:46.177Z,21.98
2022-10-29T13:57:26.041Z,23.23
2022-10-29T14:00:19.693Z,23.58
2022-10-29T14:03:02.051Z,30.52
2022-10-29T14:05:38.987Z,23.58
2022-10-29T14:08:24.927Z,25.52
2022-10-29T14:13:35.926Z,22.20
2022-10-29T14:16:05.643Z,26.73
2022-10-29T14:18:46.809Z,21.05
2022-10-29T14:21:25.468Z,23.15
2022-10-29T14:24:06.683Z,31.42
2022-10-29T14:26:35.844Z,26.67
2022-10-29T14:29:25.402Z,26.83
2022-10-29T14:32:11.977Z,28.15
2022-10-29T14:34:38.804Z,26.92
2022-10-29T14:37:16.009Z,24.73
2022-10-29T14:39:57.883Z,29.00
2022-10-29T14:42:35.067Z,28.60
2022-10-29T14:45:26.477Z,33.10
2022-10-29T14:47:58.992Z,30.58
2022-10-29T14:50:28.136Z,30.40
2022-10-29T14:53:01.229Z,24.17
2022-10-29T14:55:34.333Z,27.40
2022-10-29T14:58:09.957Z,27.60
2022-10-29T15:03:06.595Z,26.23
2022-10-29T15:05:36.220Z,26.70
2022-10-29T15:08:16.110Z,26.23
2022-10-29T15:10:54.348Z,34.75
2022-10-29T15:13:31.947Z,36.28
2022-10-29T15:16:04.545Z,31.52
2022-10-29T15:18:33.145Z,30.13
2022-10-29T15:21:01.262Z,37.13
2022-10-29T15:23:43.410Z,32.58
2022-10-29T15:26:17.106Z,28.23
2022-10-29T15:28:46.463Z,28.45
2022-10-29T15:31:42.727Z,24.02
2022-10-29T15:34:15.131Z,30.08
2022-10-29T15:37:20.191Z,30.30
2022-10-29T15:39:56.166Z,29.13
2022-10-29T15:42:28.384Z,33.13
2022-10-29T15:48:06.561Z,30.80
2022-10-29T15:50:39.746Z,27.20
2022-10-29T15:53:11.645Z,29.98
2022-10-29T15:55:38.454Z,36.38
2022-10-29T15:58:11.904Z,32.42
2022-10-29T16:00:38.696Z,26.05
2022-10-29T16:03:18.589Z,26.35
2022-10-29T16:05:48.823Z,33.67
2022-10-29T16:08:32.840Z,27.77
2022-10-29T16:11:01.631Z,35.75
2022-10-29T16:13:30.052Z,29.50
2022-10-29T16:15:57.006Z,28.30
2022-10-29T16:18:24.247Z,32.00
2022-10-29T16:23:39.197Z,36.08
2022-10-29T16:26:05.880Z,33.80
2022-10-29T16:28:33.707Z,27.70
2022-10-29T16:31:00.627Z,33.45
2022-10-29T16:33:27.725Z,31.75
2022-10-29T16:35:54.422Z,35.30
2022-10-29T16:38:21.013Z,37.30
2022-10-29T16:40:47.734Z,35.25
2022-10-29T16:43:14.480Z,35.08
2022-10-29T16:45:41.304Z,39.50
2022-10-29T16:48:11.042Z,42.65
2022-10-29T16:50:37.775Z,30.38
2022-10-29T16:53:07.769Z,37.75
2022-10-29T16:55:37.318Z,40.30
2022-10-29T16:58:07.280Z,34.50
2022-10-29T17:00:34.198Z,39.25
2022-10-29T17:03:04.941Z,37.58
2022-10-29T17:05:42.913Z,38.00
2022-10-29T17:08:10.600Z,37.70
2022-10-29T17:10:37.396Z,42.97
2022-10-29T17:13:04.549Z,39.67
2022-10-29T17:15:31.208Z,45.17
2022-10-29T17:18:27.590Z,35.90
2022-10-29T17:21:04.087Z,45.65
2022-10-29T17:23:35.164Z,42.85
2022-10-29T17:26:02.903Z,41.42
2022-10-29T17:28:29.686Z,37.45
2022-10-29T17:30:57.265Z,41.97
2022-10-29T17:33:25.246Z,38.42
2022-10-29T17:36:10.261Z,40.97
2022-10-29T17:38:39.626Z,43.20
2022-10-29T17:41:09.639Z,38.28
2022-10-29T17:43:39.517Z,44.45
2022-10-29T17:46:08.014Z,43.40
2022-10-29T17:48:37.213Z,42.75
2022-10-29T17:51:04.221Z,36.58
2022-10-29T17:53:46.630Z,43.70
2022-10-29T17:56:13.374Z,46.08
2022-10-29T17:58:54.024Z,47.50
2022-10-29T18:01:24.085Z,42.75
2022-10-29T18:03:50.890Z,45.88
2022-10-29T18:06:18.689Z,47.00
2022-10-29T18:08:49.291Z,48.90
2022-10-29T18:11:20.520Z,47.85
2022-10-29T18:13:50.746Z,46.75
2022-10-29T18:16:24.746Z,40.10
2022-10-29T18:19:01.685Z,45.50
2022-10-29T18:21:29.975Z,45.83
2022-10-29T18:26:55.708Z,44.53
2022-10-29T18:29:26.933Z,57.05
2022-10-29T18:31:55.914Z,41.67
2022-10-29T18:34:22.930Z,40.78
2022-10-29T18:36:49.688Z,42.53
2022-10-29T18:39:19.869Z,38.97
2022-10-29T18:42:04.489Z,46.45
2022-10-29T18:44:31.393Z,49.63
2022-10-29T18:46:58.286Z,42.35
2022-10-29T18:49:25.061Z,43.75
2022-10-29T18:51:53.355Z,56.47
2022-10-29T18:54:20.253Z,59.90
2022-10-29T18:56:47.290Z,48.35
2022-10-29T18:59:15.493Z,43.03
2022-10-29T19:01:42.403Z,41.38
2022-10-29T19:04:13.796Z,46.97
2022-10-29T19:06:40.698Z,43.17
2022-10-29T19:09:09.821Z,46.28
2022-10-29T19:11:37.070Z,45.47
2022-10-29T19:14:06.655Z,50.00
2022-10-29T19:16:34.137Z,49.80
2022-10-29T19:19:17.234Z,42.83
2022-10-29T19:21:54.512Z,48.35
2022-10-29T19:24:41.984Z,52.83
2022-10-29T19:27:13.664Z,43.78
2022-10-29T19:29:54.227Z,43.13
2022-10-29T19:32:33.180Z,50.50
2022-10-29T19:35:00.180Z,49.03
2022-10-29T19:37:27.095Z,45.25
2022-10-29T19:40:02.780Z,43.15
2022-10-29T19:42:37.596Z,50.05
2022-10-29T19:45:10.559Z,45.40
2022-10-29T19:47:39.541Z,47.85
2022-10-29T19:50:10.072Z,46.05
2022-10-29T19:52:39.107Z,38.38
2022-10-29T19:55:12.098Z,47.70
2022-10-29T19:57:42.062Z,48.53
2022-10-29T20:00:16.543Z,43.00
2022-10-29T20:02:44.875Z,42.78
2022-10-29T20:05:15.138Z,44.15
2022-10-29T20:07:42.193Z,39.10
2022-10-29T20:10:08.955Z,43.85
2022-10-29T20:12:44.689Z,39.10
2022-10-29T20:17:41.361Z,45.55
2022-10-29T20:20:11.596Z,41.08
2022-10-29T20:22:43.101Z,40.58
2022-10-29T20:25:10.272Z,49.92
2022-10-29T20:27:37.357Z,42.88
2022-10-29T20:30:05.400Z,48.75
2022-10-29T20:32:32.655Z,45.53
2022-10-29T20:34:59.507Z,58.53
2022-10-29T20:37:26.562Z,49.20
2022-10-29T20:39:53.538Z,50.25
2022-10-29T20:42:20.195Z,52.47
2022-10-29T20:44:46.924Z,45.28
2022-10-29T20:47:13.634Z,41.22
2022-10-29T20:49:40.537Z,49.03
2022-10-29T20:52:07.339Z,50.38
2022-10-29T20:54:34.179Z,53.90
2022-10-29T20:57:00.857Z,42.40
2022-10-29T20:59:27.724Z,51.05
2022-10-29T21:01:56.840Z,51.65
2022-10-29T21:04:23.911Z,49.55
2022-10-29T21:06:50.745Z,46.33
2022-10-29T21:09:17.514Z,43.35
2022-10-29T21:11:44.232Z,45.65
2022-10-29T21:14:10.882Z,45.70
2022-10-29T21:16:37.584Z,48.65
2022-10-29T21:19:05.859Z,47.97
2022-10-29T21:21:32.700Z,40.13
2022-10-29T21:23:59.988Z,44.67
2022-10-29T21:26:27.923Z,46.22
2022-10-29T21:28:54.904Z,40.03
2022-10-29T21:31:31.323Z,43.70
2022-10-29T21:33:58.041Z,44.75
2022-10-29T21:36:24.792Z,44.78
2022-10-29T21:38:53.915Z,51.45
2022-10-29T21:41:20.661Z,45.05
2022-10-29T21:43:47.538Z,51.63
2022-10-29T21:46:14.354Z,51.75
2022-10-29T21:48:41.055Z,46.28
2022-10-29T21:51:11.216Z,47.88
2022-10-29T21:53:38.101Z,43.10
2022-10-29T21:56:07.053Z,48.30
2022-10-29T21:58:34.202Z,47.00
2022-10-29T22:01:07.163Z,47.33
2022-10-29T22:03:35.211Z,55.85
2022-10-29T22:06:11.133Z,48.90
2022-10-29T22:08:38.497Z,45.05
2022-10-29T22:11:05.680Z,44.97
2022-10-29T22:13:33.794Z,45.92
2022-10-29T22:16:01.446Z,47.45
2022-10-29T22:18:28.500Z,45.80
2022-10-29T22:24:03.421Z,50.70
2022-10-29T22:26:30.428Z,56.25
2022-10-29T22:28:57.305Z,46.53
2022-10-29T22:34:15.973Z,46.33
2022-10-29T22:36:42.811Z,47.20
2022-10-29T22:39:09.908Z,44.80
2022-10-29T22:41:36.717Z,46.90
2022-10-29T22:44:05.581Z,44.53
2022-10-29T22:46:32.420Z,51.15
2022-10-29T22:48:59.575Z,45.03
2022-10-29T22:51:27.730Z,48.38
2022-10-29T22:53:54.613Z,51.80
2022-10-29T22:56:23.854Z,46.85
2022-10-29T22:58:51.196Z,46.53
2022-10-29T23:01:21.891Z,47.92
2022-10-29T23:03:49.268Z,44.95
2022-10-29T23:06:18.538Z,52.03
2022-10-29T23:08:46.136Z,45.72
2022-10-29T23:11:23.475Z,45.58
2022-10-29T23:13:52.170Z,51.10
2022-10-29T23:16:19.815Z,48.45
2022-10-29T23:18:50.843Z,50.42
2022-10-29T23:21:18.216Z,53.65
2022-10-29T23:23:45.450Z,50.40
2022-10-29T23:26:13.126Z,54.75
2022-10-29T23:28:40.537Z,50.38
2022-10-29T23:31:11.482Z,50.85
2022-10-29T23:33:38.371Z,48.13
2022-10-29T23:36:07.482Z,48.92
2022-10-29T23:38:34.860Z,43.80
2022-10-29T23:41:02.263Z,47.05
2022-10-29T23:43:29.043Z,48.47
2022-10-29T23:45:56.502Z,53.30
2022-10-29T23:48:23.928Z,43.78
2022-10-29T23:50:51.231Z,49.55
2022-10-29T23:53:18.474Z,47.05
2022-10-29T23:55:45.846Z,48.42
2022-10-29T23:58:13.883Z,45.45
